Time;durP1;ratioP1;P1;durP2;ratioP2;P2;SDS_P1;SDS_P2;PMS_P1;PMS_P2;Temp;Humidity;BMP_temperature;BMP_pressure;BME280_temperature;BME280_humidity;BME280_pressure;Samples;Min_cycle;Max_cycle;Signal;HPM_P1;HPM_P2
2022/10/10 00:01:47;;;;;;;15.40;5.47;;;;;;;11.72;69.55;100059.69;5076531;28;20078;-84
2022/10/10 00:04:13;;;;;;;10.93;4.85;;;;;;;11.72;69.52;100066.84;5071255;28;20495;-84
2022/10/10 00:06:40;;;;;;;14.32;5.03;;;;;;;11.65;69.94;100058.59;5067815;28;20484;-84
2022/10/10 00:09:07;;;;;;;11.45;5.22;;;;;;;11.58;70.04;100057.44;5060065;28;20446;-83
2022/10/10 00:11:34;;;;;;;19.95;5.05;;;;;;;11.52;70.49;100055.31;5039451;28;20637;-83
2022/10/10 00:14:00;;;;;;;16.58;4.93;;;;;;;11.50;70.45;100059.97;5057545;28;20062;-83
2022/10/10 00:16:27;;;;;;;8.95;4.70;;;;;;;11.49;70.60;100059.09;5068242;28;20476;-84
2022/10/10 00:18:54;;;;;;;8.02;4.30;;;;;;;11.50;70.37;100063.47;5059143;28;20044;-83
2022/10/10 00:21:21;;;;;;;11.18;4.45;;;;;;;11.50;70.10;100062.63;5060055;28;20039;-84
2022/10/10 00:23:47;;;;;;;7.38;4.25;;;;;;;11.55;70.01;100059.53;5049560;28;20048;-83
2022/10/10 00:26:14;;;;;;;12.40;4.00;;;;;;;11.46;70.45;100050.56;5075933;28;20483;-84
2022/10/10 00:28:45;;;;;;;16.05;4.35;;;;;;;11.46;70.39;100053.22;5064043;28;20043;-84
2022/10/10 00:31:12;;;;;;;8.82;4.00;;;;;;;11.52;69.77;100055.31;5070227;28;20071;-83
2022/10/10 00:33:39;;;;;;;12.15;4.82;;;;;;;11.49;70.19;100056.44;5063681;28;20043;-83
2022/10/10 00:36:06;;;;;;;18.92;4.72;;;;;;;11.39;70.57;100058.22;5059083;28;20048;-83
2022/10/10 00:38:33;;;;;;;9.00;3.90;;;;;;;11.37;70.53;100057.56;5071737;28;20055;-83
2022/10/10 00:41:01;;;;;;;13.80;4.28;;;;;;;11.40;70.56;100051.13;5059415;28;20514;-83
2022/10/10 00:43:28;;;;;;;13.95;4.60;;;;;;;11.38;70.40;100050.41;5065048;28;20052;-83
2022/10/10 00:45:55;;;;;;;11.40;4.55;;;;;;;11.40;69.94;100046.63;5041945;28;20549;-83
2022/10/10 00:48:25;;;;;;;17.42;4.75;;;;;;;11.33;70.22;100055.28;5066882;28;20101;-83
2022/10/10 00:51:08;;;;;;;9.82;3.70;;;;;;;11.26;70.40;100047.00;5066371;28;20388;-83
2022/10/10 00:53:42;;;;;;;12.25;4.70;;;;;;;11.21;70.47;100047.41;5054141;28;20044;-83
2022/10/10 00:56:09;;;;;;;10.75;4.70;;;;;;;11.30;70.69;100049.25;5074898;28;20603;-83
2022/10/10 00:58:39;;;;;;;8.07;4.53;;;;;;;11.30;70.51;100054.56;5063123;28;20059;-83
2022/10/10 01:01:06;;;;;;;11.38;4.75;;;;;;;11.25;70.72;100048.00;5042826;28;20063;-83
2022/10/10 01:03:33;;;;;;;10.00;4.68;;;;;;;11.20;70.75;100042.25;5071898;28;20063;-84
2022/10/10 01:05:59;;;;;;;15.32;5.10;;;;;;;11.10;71.13;100042.19;5071928;28;20403;-84
2022/10/10 01:08:26;;;;;;;11.15;5.18;;;;;;;11.21;70.77;100042.09;5052688;28;20047;-84
2022/10/10 01:11:15;;;;;;;13.02;4.85;;;;;;;11.08;71.27;100044.97;5057607;28;20036;-84
2022/10/10 01:13:57;;;;;;;12.68;4.75;;;;;;;11.09;70.91;100040.50;5089296;28;20043;-84
2022/10/10 01:16:47;;;;;;;25.73;5.68;;;;;;;10.77;72.04;100046.78;5070619;28;20444;-83
2022/10/10 01:19:41;;;;;;;11.50;4.60;;;;;;;10.75;72.00;100045.25;5057606;28;20048;-84
2022/10/10 01:22:27;;;;;;;13.45;4.85;;;;;;;10.73;72.12;100040.06;5076184;28;20044;-83
2022/10/10 01:25:28;;;;;;;14.10;5.60;;;;;;;10.81;71.88;100047.38;5084888;28;20097;-84
2022/10/10 01:28:24;;;;;;;11.18;4.82;;;;;;;10.70;71.96;100045.63;5041617;28;20046;-83
2022/10/10 01:30:51;;;;;;;7.07;4.30;;;;;;;10.86;71.68;100043.34;5078629;28;20067;-83
2022/10/10 01:33:44;;;;;;;13.82;5.50;;;;;;;10.81;71.41;100039.38;5044734;28;20239;-83
2022/10/10 01:36:19;;;;;;;13.00;4.85;;;;;;;10.99;71.08;100042.28;5102572;28;20556;-84
2022/10/10 01:39:02;;;;;;;15.63;4.85;;;;;;;11.03;70.96;100047.19;5074090;28;20039;-84
2022/10/10 01:41:37;;;;;;;16.10;4.70;;;;;;;10.94;71.17;100047.13;5058168;28;20116;-84
2022/10/10 01:44:04;;;;;;;11.75;4.70;;;;;;;11.07;71.01;100035.34;5069603;28;20101;-84
2022/10/10 01:46:31;;;;;;;12.38;4.30;;;;;;;11.10;71.26;100041.34;5075488;28;20514;-83
2022/10/10 01:48:58;;;;;;;11.32;4.47;;;;;;;11.11;70.76;100037.72;5071297;28;20081;-84
2022/10/10 01:51:43;;;;;;;12.90;5.32;;;;;;;11.15;70.33;100036.47;5052142;28;20055;-84
2022/10/10 01:54:32;;;;;;;11.88;5.13;;;;;;;10.99;70.56;100032.50;5073500;28;20048;-83
2022/10/10 01:57:20;;;;;;;10.60;4.60;;;;;;;10.91;71.12;100036.78;5070205;28;20081;-83
2022/10/10 02:00:07;;;;;;;13.35;4.15;;;;;;;10.88;71.36;100032.59;5076334;28;20395;-84
2022/10/10 02:02:56;;;;;;;12.27;5.28;;;;;;;11.06;70.06;100030.13;5071656;28;21062;-84
2022/10/10 02:05:38;;;;;;;11.95;5.20;;;;;;;11.01;70.05;100027.03;5058613;28;20231;-84
2022/10/10 02:08:13;;;;;;;12.52;5.10;;;;;;;11.00;70.04;100028.03;5065847;28;20070;-84
2022/10/10 02:10:48;;;;;;;10.88;5.53;;;;;;;10.94;70.00;100016.13;5069272;28;20081;-84
2022/10/10 02:13:15;;;;;;;10.90;5.45;;;;;;;11.05;69.79;100024.00;5054819;28;20042;-84
2022/10/10 02:15:47;;;;;;;10.13;5.00;;;;;;;10.99;70.33;100019.22;5060014;28;20128;-84
2022/10/10 02:18:15;;;;;;;9.73;4.60;;;;;;;11.00;70.13;100025.38;5085995;28;20084;-84
2022/10/10 02:20:42;;;;;;;13.27;4.65;;;;;;;11.02;70.06;100020.78;5069730;28;20071;-84
2022/10/10 02:23:12;;;;;;;18.00;5.45;;;;;;;10.96;70.76;100022.13;5077059;28;20044;-84
2022/10/10 02:25:40;;;;;;;7.90;4.88;;;;;;;10.97;69.95;100018.50;5073345;28;20559;-84
2022/10/10 02:28:07;;;;;;;11.25;5.25;;;;;;;11.02;70.12;100018.94;5076001;28;20054;-84
2022/10/10 02:30:35;;;;;;;10.43;5.20;;;;;;;10.99;70.26;100023.66;5072923;28;20251;-84
2022/10/10 02:33:03;;;;;;;13.70;4.78;;;;;;;10.90;70.64;100017.34;5041870;28;20044;-83
2022/10/10 02:35:33;;;;;;;14.93;4.18;;;;;;;10.85;71.36;100024.88;5045589;28;20372;-83
2022/10/10 02:38:03;;;;;;;13.10;4.53;;;;;;;10.84;71.15;100026.69;5057449;28;20052;-84
2022/10/10 02:40:31;;;;;;;16.25;5.03;;;;;;;10.85;71.43;100015.09;5060399;28;20043;-83
2022/10/10 02:42:59;;;;;;;18.52;5.53;;;;;;;10.85;71.27;100016.91;5075266;28;20055;-84
2022/10/10 02:45:27;;;;;;;12.40;5.15;;;;;;;10.81;71.60;100019.00;5054732;28;20098;-83
2022/10/10 02:47:54;;;;;;;18.70;4.75;;;;;;;10.83;71.77;100016.19;5042982;28;20051;-84
2022/10/10 02:50:22;;;;;;;19.08;4.95;;;;;;;10.81;71.51;100011.03;5044105;28;20056;-84
2022/10/10 02:52:49;;;;;;;11.38;4.70;;;;;;;10.75;71.78;100018.69;5053511;28;20036;-84
2022/10/10 02:55:16;;;;;;;13.70;4.95;;;;;;;10.77;71.58;100022.88;5054752;28;20070;-83
2022/10/10 02:57:42;;;;;;;14.02;5.43;;;;;;;10.80;71.67;100011.16;5060061;28;20380;-83
2022/10/10 03:00:10;;;;;;;9.30;4.85;;;;;;;10.82;71.49;100009.22;5032115;28;20044;-84
2022/10/10 03:02:36;;;;;;;22.55;5.32;;;;;;;10.76;71.88;100010.59;5053603;28;20047;-84
2022/10/10 03:05:04;;;;;;;8.43;4.72;;;;;;;10.78;71.92;100007.78;5075610;28;20088;-84
2022/10/10 03:07:31;;;;;;;10.82;4.10;;;;;;;10.80;71.77;100003.19;5069497;28;20043;-84
2022/10/10 03:09:58;;;;;;;13.38;4.97;;;;;;;10.75;71.97;100005.41;5059941;28;20096;-83
2022/10/10 03:12:25;;;;;;;15.30;5.40;;;;;;;10.79;71.95;100009.50;5068626;28;20097;-84
2022/10/10 03:14:52;;;;;;;9.13;4.32;;;;;;;10.80;71.19;100006.69;5061655;28;20043;-84
2022/10/10 03:17:18;;;;;;;12.85;5.25;;;;;;;10.76;71.83;99999.97;5043509;28;20507;-83
2022/10/10 03:19:45;;;;;;;9.60;4.97;;;;;;;10.69;72.13;100009.44;5090366;28;20039;-83
2022/10/10 03:22:12;;;;;;;16.65;5.22;;;;;;;10.77;72.34;100006.13;5042935;28;20058;-84
2022/10/10 03:24:38;;;;;;;13.25;5.70;;;;;;;10.79;72.10;100009.50;5076664;28;20040;-84
2022/10/10 03:27:05;;;;;;;12.80;4.88;;;;;;;10.76;72.19;100004.41;5064599;28;20067;-84
2022/10/10 03:29:32;;;;;;;11.18;4.80;;;;;;;10.75;72.32;100008.06;5076630;28;20040;-84
2022/10/10 03:31:59;;;;;;;10.55;4.57;;;;;;;10.72;72.14;100008.34;5057424;28;20044;-84
2022/10/10 03:34:26;;;;;;;11.32;4.82;;;;;;;10.75;71.92;100016.03;5077569;28;20689;-84
2022/10/10 03:37:01;;;;;;;11.35;4.25;;;;;;;10.78;71.88;100011.28;5072056;28;20051;-83
2022/10/10 03:39:28;;;;;;;14.32;5.10;;;;;;;10.74;72.45;100009.88;5049873;28;20043;-84
2022/10/10 03:41:55;;;;;;;17.92;4.95;;;;;;;10.67;72.51;100015.84;5062581;28;20048;-84
2022/10/10 03:44:21;;;;;;;8.85;4.85;;;;;;;10.67;72.59;100019.34;5078431;28;20046;-84
2022/10/10 03:46:48;;;;;;;15.02;5.10;;;;;;;10.55;72.66;100015.91;5062684;28;20047;-84
2022/10/10 03:49:15;;;;;;;16.90;5.68;;;;;;;10.53;72.69;100015.22;5069978;28;20047;-84
2022/10/10 03:51:42;;;;;;;9.68;4.50;;;;;;;10.50;72.99;100017.28;5092999;28;20082;-84
2022/10/10 03:54:08;;;;;;;10.73;5.40;;;;;;;10.61;72.41;100023.38;5057945;28;20086;-84
2022/10/10 03:56:35;;;;;;;15.75;4.93;;;;;;;10.51;72.62;100019.00;5093276;28;20040;-83
2022/10/10 03:59:02;;;;;;;12.85;5.90;;;;;;;10.49;72.67;100013.78;5049648;28;20081;-85
2022/10/10 04:01:29;;;;;;;13.43;5.30;;;;;;;10.47;72.58;100014.91;5065258;28;20108;-85
2022/10/10 04:03:56;;;;;;;15.60;5.20;;;;;;;10.40;72.77;100014.56;5060892;28;20421;-85
2022/10/10 04:06:23;;;;;;;13.57;5.70;;;;;;;10.47;72.67;100018.38;5079598;28;20153;-85
2022/10/10 04:08:49;;;;;;;16.65;5.20;;;;;;;10.45;72.65;100022.97;5057243;28;20123;-85
2022/10/10 04:11:16;;;;;;;15.95;4.95;;;;;;;10.38;72.67;100019.16;5075799;28;20089;-86
2022/10/10 04:13:43;;;;;;;13.52;4.47;;;;;;;10.40;72.68;100018.06;5088668;28;20039;-85
2022/10/10 04:16:10;;;;;;;13.77;5.30;;;;;;;10.40;72.57;100028.69;5084591;28;20047;-83
2022/10/10 04:18:36;;;;;;;21.30;5.78;;;;;;;10.42;72.23;100023.25;5060913;28;20097;-83
2022/10/10 04:21:04;;;;;;;15.57;5.60;;;;;;;10.37;72.41;100031.59;5060843;28;20407;-83
2022/10/10 04:23:31;;;;;;;15.63;5.10;;;;;;;10.33;72.95;100018.72;5065384;28;20092;-82
2022/10/10 04:25:58;;;;;;;14.32;5.15;;;;;;;10.39;72.52;100027.00;5072778;28;20055;-84
2022/10/10 04:28:24;;;;;;;19.50;5.10;;;;;;;10.39;72.64;100021.69;5054584;28;20402;-85
2022/10/10 04:30:51;;;;;;;17.17;5.38;;;;;;;10.36;73.12;100018.47;5072117;28;20118;-84
2022/10/10 04:33:18;;;;;;;11.98;5.50;;;;;;;10.31;73.32;100015.38;5042635;28;20499;-84
2022/10/10 04:35:47;;;;;;;13.73;5.40;;;;;;;10.31;73.13;100012.72;5055655;28;20654;-84
2022/10/10 04:38:16;;;;;;;12.50;5.25;;;;;;;10.29;73.22;100009.34;5076437;28;20076;-82
2022/10/10 04:40:43;;;;;;;19.50;5.60;;;;;;;10.33;73.15;100008.94;5075106;28;20498;-84
2022/10/10 04:43:09;;;;;;;16.88;5.97;;;;;;;10.31;73.13;100015.38;5071284;28;20044;-84
2022/10/10 04:45:36;;;;;;;10.23;5.22;;;;;;;10.24;73.41;100008.84;5036382;28;20043;-84
2022/10/10 04:48:03;;;;;;;16.70;5.63;;;;;;;10.24;73.04;100017.66;5054879;28;20044;-83
2022/10/10 04:50:30;;;;;;;12.07;5.35;;;;;;;10.24;73.23;100011.50;5090110;28;20059;-83
2022/10/10 04:52:57;;;;;;;11.48;5.30;;;;;;;10.28;73.34;100024.44;5059501;28;20112;-84
2022/10/10 04:55:24;;;;;;;16.20;5.05;;;;;;;10.23;73.14;100015.97;5062480;28;20044;-83
2022/10/10 04:57:50;;;;;;;15.90;6.03;;;;;;;10.22;72.90;100011.63;5079111;28;20097;-84
2022/10/10 05:00:17;;;;;;;19.05;5.43;;;;;;;10.21;73.11;100012.59;5072451;28;20047;-86
2022/10/10 05:02:44;;;;;;;13.13;5.45;;;;;;;10.24;72.96;100007.03;5057349;28;20526;-86
2022/10/10 05:05:10;;;;;;;16.10;5.63;;;;;;;10.31;72.58;100010.91;5060758;28;20055;-85
2022/10/10 05:07:37;;;;;;;12.57;5.32;;;;;;;10.30;72.58;100008.34;5087236;28;20052;-85
2022/10/10 05:10:05;;;;;;;12.18;5.20;;;;;;;10.27;73.05;100008.59;5074306;28;20188;-84
2022/10/10 05:12:32;;;;;;;23.02;5.97;;;;;;;10.19;73.20;100011.88;5054879;28;20058;-86
2022/10/10 05:14:59;;;;;;;18.50;5.65;;;;;;;10.23;73.18;100015.97;5073810;28;20040;-85
2022/10/10 05:17:26;;;;;;;15.65;5.53;;;;;;;10.20;73.11;100017.06;5074307;28;20454;-85
2022/10/10 05:19:52;;;;;;;17.55;6.07;;;;;;;10.16;73.22;100020.94;5067879;28;20088;-85
2022/10/10 05:22:19;;;;;;;18.38;5.63;;;;;;;10.10;73.50;100024.13;5076908;28;20495;-85
2022/10/10 05:24:46;;;;;;;11.27;4.78;;;;;;;10.19;73.22;100022.50;5075263;28;20050;-85
2022/10/10 05:27:12;;;;;;;13.23;5.80;;;;;;;10.19;73.21;100027.81;5060859;28;20043;-85
2022/10/10 05:29:39;;;;;;;19.10;6.45;;;;;;;10.17;73.48;100027.94;5071514;28;20043;-85
2022/10/10 05:32:06;;;;;;;19.02;6.15;;;;;;;10.21;73.05;100018.75;5091315;28;20132;-84
2022/10/10 05:34:36;;;;;;;12.07;6.00;;;;;;;10.20;72.86;100026.81;5053455;28;20043;-84
2022/10/10 05:37:03;;;;;;;10.98;5.97;;;;;;;10.14;72.62;100030.84;5072408;28;20044;-85
2022/10/10 05:39:29;;;;;;;10.02;5.30;;;;;;;10.18;73.02;100026.13;5073647;28;20173;-85
2022/10/10 05:41:56;;;;;;;11.52;4.53;;;;;;;10.13;73.18;100031.00;5086398;28;20060;-85
2022/10/10 05:44:23;;;;;;;22.92;6.80;;;;;;;10.18;73.04;100029.63;5073225;28;20039;-84
2022/10/10 05:46:50;;;;;;;16.92;6.22;;;;;;;10.10;73.69;100031.22;5084491;28;20075;-84
2022/10/10 05:49:16;;;;;;;17.05;5.65;;;;;;;10.10;73.77;100031.22;5090665;28;20054;-84
2022/10/10 05:51:43;;;;;;;13.32;5.68;;;;;;;10.13;73.79;100034.47;5069498;28;20048;-84
2022/10/10 05:54:10;;;;;;;15.52;6.50;;;;;;;10.15;73.60;100039.63;5081616;28;20043;-84
2022/10/10 05:56:37;;;;;;;23.48;6.47;;;;;;;10.19;73.40;100041.91;5073971;28;20044;-85
2022/10/10 05:59:03;;;;;;;20.52;7.45;;;;;;;10.13;73.88;100037.13;5078372;28;20063;-85
2022/10/10 06:01:30;;;;;;;12.48;5.20;;;;;;;10.12;73.93;100038.09;5084580;28;20063;-85
2022/10/10 06:03:57;;;;;;;13.65;5.85;;;;;;;10.11;73.90;100036.41;5065584;28;20047;-85
2022/10/10 06:06:24;;;;;;;28.05;7.30;;;;;;;10.08;74.20;100034.03;5074626;28;20048;-85
2022/10/10 06:08:51;;;;;;;13.30;6.55;;;;;;;10.16;74.08;100044.84;5059935;28;20054;-85
2022/10/10 06:11:19;;;;;;;11.32;5.55;;;;;;;10.14;74.35;100040.63;5068891;28;20135;-85
2022/10/10 06:13:48;;;;;;;13.10;6.53;;;;;;;10.17;74.00;100041.19;5070852;28;20048;-85
2022/10/10 06:16:15;;;;;;;20.27;7.32;;;;;;;10.20;74.40;100045.41;5054596;28;20063;-85
2022/10/10 06:18:42;;;;;;;21.80;7.47;;;;;;;10.22;74.19;100044.31;5069273;28;20040;-85
2022/10/10 06:21:10;;;;;;;13.60;6.95;;;;;;;10.27;73.90;100043.09;5074577;28;20517;-85
2022/10/10 06:23:37;;;;;;;16.05;6.88;;;;;;;10.33;73.53;100034.63;5064129;28;20092;-85
2022/10/10 06:26:03;;;;;;;19.88;7.68;;;;;;;10.35;73.31;100033.53;5069022;28;20082;-85
2022/10/10 06:28:30;;;;;;;18.77;7.28;;;;;;;10.39;72.83;100048.25;5056608;28;20051;-84
2022/10/10 06:31:05;;;;;;;25.13;8.60;;;;;;;10.22;72.22;100041.66;5078965;28;20047;-85
2022/10/10 06:33:32;;;;;;;27.42;8.27;;;;;;;10.35;72.25;100032.69;5100294;28;20581;-85
2022/10/10 06:36:04;;;;;;;36.70;9.63;;;;;;;10.38;72.13;100045.69;5086196;28;20548;-84
2022/10/10 06:38:31;;;;;;;21.48;8.00;;;;;;;10.42;72.52;100050.63;5088060;28;20035;-85
2022/10/10 06:41:04;;;;;;;18.98;8.30;;;;;;;10.29;72.49;100044.69;5064567;28;20040;-86
2022/10/10 06:43:31;;;;;;;;;;;;;;;10.09;73.26;100048.13;5061837;28;20113;-85
2022/10/10 06:45:58;;;;;;;30.08;9.63;;;;;;;10.46;72.54;100040.63;5071614;28;19980;-85
2022/10/10 06:48:25;;;;;;;25.75;8.32;;;;;;;10.48;72.65;100038.69;5064840;28;20032;-85
2022/10/10 06:51:03;;;;;;;23.42;8.68;;;;;;;10.36;73.12;100052.97;5070832;28;20081;-84
2022/10/10 06:53:30;;;;;;;21.10;9.05;;;;;;;10.55;72.92;100052.25;5086036;28;20127;-85
2022/10/10 06:55:57;;;;;;;25.45;9.57;;;;;;;10.58;72.95;100055.50;5067723;28;20129;-85
2022/10/10 06:58:25;;;;;;;25.88;8.88;;;;;;;10.68;72.52;100060.84;5057887;28;20108;-85
2022/10/10 07:00:54;;;;;;;29.08;8.88;;;;;;;10.76;72.40;100055.75;5084810;28;20040;-85
2022/10/10 07:03:21;;;;;;;28.88;10.68;;;;;;;10.79;72.29;100058.13;5085648;28;20055;-85
2022/10/10 07:05:49;;;;;;;22.70;10.00;;;;;;;10.87;72.05;100065.44;5049812;28;20048;-85
2022/10/10 07:08:16;;;;;;;21.33;9.57;;;;;;;10.89;72.18;100065.28;5066796;28;20071;-85
2022/10/10 07:10:43;;;;;;;24.63;9.10;;;;;;;10.94;72.22;100073.72;5064942;28;20036;-84
2022/10/10 07:13:10;;;;;;;22.98;8.45;;;;;;;10.98;72.38;100065.34;5070075;28;20150;-84
2022/10/10 07:15:37;;;;;;;24.30;9.25;;;;;;;10.98;72.77;100072.50;5060590;28;20155;-85
2022/10/10 07:18:04;;;;;;;18.92;9.65;;;;;;;10.96;72.74;100072.59;5084687;28;20052;-81
2022/10/10 07:20:30;;;;;;;24.17;9.32;;;;;;;10.99;72.58;100080.34;5082983;28;20116;-83
2022/10/10 07:22:57;;;;;;;21.48;8.77;;;;;;;11.02;72.64;100077.41;5082645;28;20044;-85
2022/10/10 07:25:24;;;;;;;30.10;9.20;;;;;;;11.03;72.65;100072.94;5100896;28;20044;-85
2022/10/10 07:27:50;;;;;;;19.45;7.80;;;;;;;10.95;72.88;100068.28;5051940;28;20044;-85
2022/10/10 07:30:17;;;;;;;21.80;8.77;;;;;;;10.93;72.54;100075.53;5074189;28;20453;-85
2022/10/10 07:32:44;;;;;;;20.73;9.60;;;;;;;10.93;72.65;100077.34;5071836;28;20055;-85
2022/10/10 07:35:11;;;;;;;22.50;9.13;;;;;;;10.97;72.93;100090.25;5059813;28;20092;-85
2022/10/10 07:37:38;;;;;;;24.02;8.68;;;;;;;10.98;73.15;100088.44;5082779;28;20053;-82
2022/10/10 07:40:07;;;;;;;24.02;8.38;;;;;;;11.05;72.51;100089.59;5094454;28;20075;-83
2022/10/10 07:42:34;;;;;;;19.30;8.18;;;;;;;11.10;72.54;100089.19;5049782;28;20044;-84
2022/10/10 07:45:01;;;;;;;18.23;9.13;;;;;;;11.16;72.82;100094.81;5067634;28;20483;-85
2022/10/10 07:47:27;;;;;;;23.77;9.15;;;;;;;11.23;72.46;100092.47;5095329;28;20040;-83
2022/10/10 07:49:54;;;;;;;17.83;9.05;;;;;;;11.27;72.20;100084.09;5079414;28;20213;-82
2022/10/10 07:52:21;;;;;;;17.95;9.00;;;;;;;11.36;72.07;100079.78;5052620;28;20047;-82
2022/10/10 07:54:47;;;;;;;22.13;9.30;;;;;;;11.40;72.39;100093.66;5079053;28;20040;-82
2022/10/10 07:57:14;;;;;;;25.33;9.40;;;;;;;11.45;72.10;100092.28;5073705;28;20093;-83
2022/10/10 07:59:44;;;;;;;28.60;9.82;;;;;;;11.42;72.33;100089.03;5086379;28;20039;-82
2022/10/10 08:02:11;;;;;;;18.58;9.18;;;;;;;11.43;72.47;100091.56;5078607;28;20044;-83
2022/10/10 08:04:38;;;;;;;21.92;9.88;;;;;;;11.44;72.70;100087.91;5086647;28;20440;-83
2022/10/10 08:07:05;;;;;;;23.02;10.35;;;;;;;11.50;72.76;100092.72;5070784;28;20040;-83
2022/10/10 08:09:32;;;;;;;29.60;10.13;;;;;;;11.53;72.50;100094.25;5059828;28;20138;-82
2022/10/10 08:11:59;;;;;;;28.05;11.15;;;;;;;11.55;72.48;100099.41;5071588;28;20048;-82
2022/10/10 08:14:25;;;;;;;27.02;10.02;;;;;;;11.54;72.59;100100.41;5077182;28;20048;-84
2022/10/10 08:16:52;;;;;;;28.48;9.63;;;;;;;11.58;72.52;100108.00;5093027;28;20043;-83
2022/10/10 08:19:19;;;;;;;19.95;9.45;;;;;;;11.67;72.45;100106.31;5066620;28;20120;-83
2022/10/10 08:21:46;;;;;;;24.55;10.77;;;;;;;11.77;72.31;100099.19;5102180;28;20044;-83
2022/10/10 08:24:13;;;;;;;27.90;10.35;;;;;;;11.87;72.44;100105.41;5084325;28;20567;-83
2022/10/10 08:26:39;;;;;;;23.17;9.98;;;;;;;11.93;72.33;100106.69;5074650;28;20377;-83
2022/10/10 08:29:06;;;;;;;23.55;11.00;;;;;;;12.01;72.34;100096.22;5091415;28;20054;-83
2022/10/10 08:31:33;;;;;;;21.23;10.98;;;;;;;12.04;72.34;100095.91;5075244;28;20036;-83
2022/10/10 08:33:59;;;;;;;25.95;9.07;;;;;;;12.11;72.10;100101.50;5067821;28;20502;-83
2022/10/10 08:36:26;;;;;;;27.58;11.30;;;;;;;12.15;72.31;100101.09;5085788;28;20059;-83
2022/10/10 08:38:59;;;;;;;21.45;10.55;;;;;;;12.18;72.13;100093.81;5090632;28;20439;-83
2022/10/10 08:41:32;;;;;;;;;;;;;;;12.03;73.49;100090.72;5090229;28;20538;-83
2022/10/10 08:44:05;;;;;;;26.50;10.75;;;;;;;12.16;72.53;100099.28;5090666;28;19920;-83
2022/10/10 08:46:48;;;;;;;;;;;;;;;12.06;73.28;100093.97;5100750;28;20039;-83
2022/10/10 08:49:50;;;;;;;32.22;11.35;;;;;;;12.18;73.18;100083.19;5072587;28;19920;-83
2022/10/10 08:52:32;;;;;;;31.92;12.60;;;;;;;12.22;74.42;100092.56;5082183;28;20047;-83
2022/10/10 08:55:01;;;;;;;24.67;11.93;;;;;;;12.29;73.47;100089.22;5087126;28;20102;-83
2022/10/10 08:57:32;;;;;;;27.83;12.48;;;;;;;12.32;73.32;100098.75;5069650;28;20036;-83
2022/10/10 09:00:02;;;;;;;31.55;13.45;;;;;;;12.38;73.61;100096.34;5071789;28;20479;-83
2022/10/10 09:02:40;;;;;;;40.35;13.73;;;;;;;12.36;74.41;100098.31;5069910;28;20589;-83
2022/10/10 09:05:29;;;;;;;33.08;13.63;;;;;;;12.42;74.37;100090.75;5100280;28;20383;-83
2022/10/10 09:08:22;;;;;;;34.42;15.50;;;;;;;12.41;74.79;100095.22;5069877;28;20082;-83
2022/10/10 09:11:05;;;;;;;32.20;13.98;;;;;;;12.49;74.57;100090.03;5078609;28;20121;-83
2022/10/10 09:13:38;;;;;;;32.28;14.70;;;;;;;12.53;74.56;100095.91;5084457;28;20103;-83
2022/10/10 09:16:44;;;;;;;34.25;14.52;;;;;;;12.51;75.54;100082.72;5067537;28;20044;-83
2022/10/10 09:19:25;;;;;;;37.55;13.35;;;;;;;12.54;75.07;100087.78;5072116;28;20082;-83
2022/10/10 09:21:55;;;;;;;28.23;12.43;;;;;;;12.68;75.22;100089.16;5100681;28;20036;-83
2022/10/10 09:24:26;;;;;;;29.40;13.15;;;;;;;12.72;75.52;100084.38;5104190;28;20063;-83
2022/10/10 09:27:02;;;;;;;32.67;12.93;;;;;;;12.74;75.60;100090.41;5084491;28;20434;-83
2022/10/10 09:29:39;;;;;;;27.20;12.30;;;;;;;12.76;75.54;100083.13;5071583;28;20039;-83
2022/10/10 09:32:16;;;;;;;30.70;11.32;;;;;;;12.81;75.05;100084.34;5058412;28;20066;-83
2022/10/10 09:34:47;;;;;;;32.95;13.10;;;;;;;12.87;75.27;100079.44;5062773;28;20548;-83
2022/10/10 09:37:20;;;;;;;32.28;13.52;;;;;;;12.90;75.45;100079.13;5082005;28;20098;-83
2022/10/10 09:40:18;;;;;;;30.65;12.00;;;;;;;12.90;75.42;100080.00;5061115;28;20347;-83
2022/10/10 09:42:44;;;;;;;31.30;11.70;;;;;;;12.98;75.43;100084.63;5079676;28;20511;-83
2022/10/10 09:45:20;;;;;;;27.55;11.40;;;;;;;12.98;75.57;100081.94;5075161;28;20056;-83
2022/10/10 09:47:50;;;;;;;30.08;12.32;;;;;;;13.07;75.35;100078.38;5088870;28;20097;-83
2022/10/10 09:50:17;;;;;;;26.35;12.13;;;;;;;13.11;75.46;100078.97;5070819;28;20757;-83
2022/10/10 09:52:44;;;;;;;26.92;10.95;;;;;;;13.14;75.51;100068.00;5080528;28;20044;-83
2022/10/10 09:55:21;;;;;;;27.27;11.88;;;;;;;13.13;76.06;100067.16;5055682;28;20200;-83
2022/10/10 09:57:50;;;;;;;25.88;11.52;;;;;;;13.21;76.05;100066.41;5081531;28;20041;-83
2022/10/10 10:00:17;;;;;;;26.20;11.35;;;;;;;13.25;75.79;100070.47;5072550;28;20531;-83
2022/10/10 10:02:47;;;;;;;28.23;12.23;;;;;;;13.27;76.04;100067.69;5097722;28;20544;-82
2022/10/10 10:05:24;;;;;;;32.20;12.50;;;;;;;13.27;76.80;100065.03;5081551;28;20474;-83
2022/10/10 10:07:53;;;;;;;27.42;11.80;;;;;;;13.37;76.59;100069.31;5080770;28;20043;-83
2022/10/10 10:10:29;;;;;;;27.70;9.98;;;;;;;13.37;76.23;100073.81;5075293;28;20042;-82
2022/10/10 10:12:56;;;;;;;26.88;10.68;;;;;;;13.41;76.11;100068.03;5068055;28;20094;-82
2022/10/10 10:15:24;;;;;;;20.48;8.95;;;;;;;13.46;76.01;100078.28;5056689;28;20048;-83
2022/10/10 10:18:15;;;;;;;19.08;9.02;;;;;;;13.39;76.79;100075.34;5085982;28;20090;-83
2022/10/10 10:20:44;;;;;;;21.67;9.27;;;;;;;13.52;76.63;100074.16;5098378;28;20040;-83
2022/10/10 10:23:36;;;;;;;30.35;11.63;;;;;;;13.46;77.26;100072.94;5090035;28;20052;-83
2022/10/10 10:26:23;;;;;;;26.63;9.85;;;;;;;13.57;77.00;100075.41;5053418;28;20043;-81
2022/10/10 10:28:51;;;;;;;22.00;10.73;;;;;;;13.60;77.03;100074.25;5095352;28;20040;-81
2022/10/10 10:31:36;;;;;;;20.35;10.63;;;;;;;13.63;77.24;100072.13;5073555;28;20122;-81
2022/10/10 10:34:31;;;;;;;26.90;10.43;;;;;;;13.66;77.58;100074.50;5097738;28;20055;-82
2022/10/10 10:37:19;;;;;;;23.75;11.23;;;;;;;13.65;79.04;100063.97;5095736;28;20081;-82
2022/10/10 10:40:03;;;;;;;26.33;10.43;;;;;;;13.69;78.43;100076.03;5057290;28;20040;-82
2022/10/10 10:42:54;;;;;;;22.95;10.50;;;;;;;13.75;78.33;100074.59;5073872;28;20736;-82
2022/10/10 10:45:29;;;;;;;24.02;10.50;;;;;;;13.80;78.46;100074.97;5079546;28;20052;-83
2022/10/10 10:47:56;;;;;;;27.13;10.52;;;;;;;13.88;78.32;100064.38;5098935;28;20075;-84
2022/10/10 10:50:35;;;;;;;31.95;12.38;;;;;;;13.91;78.39;100069.41;5079340;28;20522;-84
2022/10/10 10:53:21;;;;;;;21.42;9.88;;;;;;;13.93;78.92;100066.59;5083504;28;20048;-84
2022/10/10 10:56:22;;;;;;;27.48;12.73;;;;;;;13.94;79.86;100063.75;5071208;28;20044;-82
2022/10/10 10:59:20;;;;;;;25.42;11.75;;;;;;;13.97;79.92;100057.28;5050445;28;20135;-82
2022/10/10 11:02:06;;;;;;;27.60;13.80;;;;;;;14.09;79.35;100056.94;5076067;28;20063;-84
2022/10/10 11:05:00;;;;;;;34.88;13.52;;;;;;;14.07;79.67;100058.06;5095204;28;20129;-84
2022/10/10 11:07:59;;;;;;;32.22;11.80;;;;;;;14.15;80.24;100047.47;5072938;28;20072;-84
2022/10/10 11:10:50;;;;;;;30.73;13.05;;;;;;;14.20;80.18;100037.16;5096125;28;20044;-84
2022/10/10 11:13:34;;;;;;;23.55;10.82;;;;;;;14.28;80.02;100045.22;5096629;28;20067;-82
2022/10/10 11:16:21;;;;;;;;;;;;;;;14.17;81.21;100040.13;5060482;28;20455;-83
2022/10/10 11:19:10;;;;;;;26.63;11.75;;;;;;;14.34;80.37;100033.91;5053769;28;19924;-83
2022/10/10 11:22:05;;;;;;;31.83;10.80;;;;;;;14.43;80.65;100040.16;5087116;28;20056;-84
2022/10/10 11:24:41;;;;;;;24.60;11.68;;;;;;;14.47;80.99;100040.69;5074724;28;20050;-84
2022/10/10 11:27:16;;;;;;;25.00;9.95;;;;;;;14.53;81.16;100040.09;5089844;28;20039;-83
2022/10/10 11:29:53;;;;;;;28.52;10.93;;;;;;;14.58;81.10;100026.25;5057411;28;20041;-83
2022/10/10 11:32:25;;;;;;;23.00;10.32;;;;;;;14.63;81.41;100029.28;5056702;28;20047;-83
2022/10/10 11:35:22;;;;;;;24.10;9.85;;;;;;;14.63;81.69;100030.16;5074811;28;20049;-84
2022/10/10 11:37:58;;;;;;;23.25;8.15;;;;;;;14.75;81.46;100025.38;5075887;28;20089;-84